sensor_id;sensor_type;location;lat;lon;timestamp;P1;durP1;ratioP1;P2;durP2;ratioP2
78404;SDS011;67689;43.592;1.418;2023-04-03T00:00:43;11.02;;;2.72;;
78404;SDS011;67689;43.592;1.418;2023-04-03T00:03:08;11.98;;;3.42;;
78404;SDS011;67689;43.592;1.418;2023-04-03T00:05:34;13.30;;;3.08;;
78404;SDS011;67689;43.592;1.418;2023-04-03T00:07:59;11.57;;;3.15;;
78404;SDS011;67689;43.592;1.418;2023-04-03T00:10:29;10.00;;;2.83;;
78404;SDS011;67689;43.592;1.418;2023-04-03T00:12:54;9.35;;;3.00;;
78404;SDS011;67689;43.592;1.418;2023-04-03T00:15:20;9.52;;;2.97;;
78404;SDS011;67689;43.592;1.418;2023-04-03T00:17:45;8.88;;;2.58;;
78404;SDS011;67689;43.592;1.418;2023-04-03T00:20:10;11.15;;;3.00;;
78404;SDS011;67689;43.592;1.418;2023-04-03T00:22:36;8.80;;;2.78;;
78404;SDS011;67689;43.592;1.418;2023-04-03T00:25:01;9.80;;;2.80;;
78404;SDS011;67689;43.592;1.418;2023-04-03T00:27:27;6.75;;;2.70;;
78404;SDS011;67689;43.592;1.418;2023-04-03T00:29:53;8.65;;;2.90;;
78404;SDS011;67689;43.592;1.418;2023-04-03T00:32:18;8.98;;;2.92;;
78404;SDS011;67689;43.592;1.418;2023-04-03T00:34:43;6.47;;;2.45;;
78404;SDS011;67689;43.592;1.418;2023-04-03T00:37:09;7.95;;;2.60;;
78404;SDS011;67689;43.592;1.418;2023-04-03T00:39:34;12.25;;;2.90;;
78404;SDS011;67689;43.592;1.418;2023-04-03T00:42:00;11.45;;;3.15;;
78404;SDS011;67689;43.592;1.418;2023-04-03T00:47:03;8.90;;;2.97;;
78404;SDS011;67689;43.592;1.418;2023-04-03T00:49:31;8.25;;;2.80;;
78404;SDS011;67689;43.592;1.418;2023-04-03T00:51:56;8.45;;;2.83;;
78404;SDS011;67689;43.592;1.418;2023-04-03T00:54:22;7.60;;;2.55;;
78404;SDS011;67689;43.592;1.418;2023-04-03T00:56:48;8.02;;;3.00;;
78404;SDS011;67689;43.592;1.418;2023-04-03T00:59:17;8.80;;;2.65;;
78404;SDS011;67689;43.592;1.418;2023-04-03T01:01:48;8.57;;;2.88;;
78404;SDS011;67689;43.592;1.418;2023-04-03T01:06:56;7.80;;;2.90;;
78404;SDS011;67689;43.592;1.418;2023-04-03T01:09:24;8.43;;;2.80;;
78404;SDS011;67689;43.592;1.418;2023-04-03T01:11:51;8.95;;;2.67;;
78404;SDS011;67689;43.592;1.418;2023-04-03T01:14:16;7.47;;;2.97;;
78404;SDS011;67689;43.592;1.418;2023-04-03T01:16:41;13.93;;;3.00;;
78404;SDS011;67689;43.592;1.418;2023-04-03T01:19:07;8.57;;;2.90;;
78404;SDS011;67689;43.592;1.418;2023-04-03T01:21:48;7.30;;;3.00;;
78404;SDS011;67689;43.592;1.418;2023-04-03T01:24:36;7.95;;;2.63;;
78404;SDS011;67689;43.592;1.418;2023-04-03T01:27:04;5.85;;;2.60;;
78404;SDS011;67689;43.592;1.418;2023-04-03T01:29:30;8.93;;;3.30;;
78404;SDS011;67689;43.592;1.418;2023-04-03T01:31:57;10.07;;;2.92;;
78404;SDS011;67689;43.592;1.418;2023-04-03T01:34:24;9.73;;;3.10;;
78404;SDS011;67689;43.592;1.418;2023-04-03T01:36:49;10.05;;;2.85;;
78404;SDS011;67689;43.592;1.418;2023-04-03T01:39:15;9.35;;;2.58;;
78404;SDS011;67689;43.592;1.418;2023-04-03T01:41:41;8.60;;;3.20;;
78404;SDS011;67689;43.592;1.418;2023-04-03T01:44:07;8.20;;;2.85;;
78404;SDS011;67689;43.592;1.418;2023-04-03T01:46:32;11.00;;;3.05;;
78404;SDS011;67689;43.592;1.418;2023-04-03T01:48:58;11.38;;;3.08;;
78404;SDS011;67689;43.592;1.418;2023-04-03T01:51:23;7.60;;;3.13;;
78404;SDS011;67689;43.592;1.418;2023-04-03T01:53:48;6.32;;;2.90;;
78404;SDS011;67689;43.592;1.418;2023-04-03T01:56:14;9.15;;;3.10;;
78404;SDS011;67689;43.592;1.418;2023-04-03T01:58:39;7.38;;;2.85;;
78404;SDS011;67689;43.592;1.418;2023-04-03T02:01:05;7.78;;;3.25;;
78404;SDS011;67689;43.592;1.418;2023-04-03T02:03:30;8.38;;;3.00;;
78404;SDS011;67689;43.592;1.418;2023-04-03T02:05:56;9.20;;;2.97;;
78404;SDS011;67689;43.592;1.418;2023-04-03T02:08:23;7.30;;;2.97;;
78404;SDS011;67689;43.592;1.418;2023-04-03T02:10:48;7.65;;;3.05;;
78404;SDS011;67689;43.592;1.418;2023-04-03T02:13:15;9.02;;;3.10;;
78404;SDS011;67689;43.592;1.418;2023-04-03T02:15:41;9.70;;;3.20;;
78404;SDS011;67689;43.592;1.418;2023-04-03T02:18:06;7.68;;;2.80;;
78404;SDS011;67689;43.592;1.418;2023-04-03T02:20:32;9.60;;;3.10;;
78404;SDS011;67689;43.592;1.418;2023-04-03T02:22:58;9.27;;;3.10;;
78404;SDS011;67689;43.592;1.418;2023-04-03T02:25:24;10.20;;;3.05;;
78404;SDS011;67689;43.592;1.418;2023-04-03T02:27:49;8.70;;;3.42;;
78404;SDS011;67689;43.592;1.418;2023-04-03T02:30:15;7.53;;;2.97;;
78404;SDS011;67689;43.592;1.418;2023-04-03T02:32:40;8.68;;;3.00;;
78404;SDS011;67689;43.592;1.418;2023-04-03T02:35:07;7.25;;;2.65;;
78404;SDS011;67689;43.592;1.418;2023-04-03T02:37:33;11.30;;;3.20;;
78404;SDS011;67689;43.592;1.418;2023-04-03T02:39:58;7.68;;;3.10;;
78404;SDS011;67689;43.592;1.418;2023-04-03T02:42:24;8.77;;;3.42;;
78404;SDS011;67689;43.592;1.418;2023-04-03T02:44:49;7.93;;;3.30;;
78404;SDS011;67689;43.592;1.418;2023-04-03T02:47:15;7.47;;;3.15;;
78404;SDS011;67689;43.592;1.418;2023-04-03T02:49:40;6.82;;;3.08;;
78404;SDS011;67689;43.592;1.418;2023-04-03T02:52:06;9.20;;;3.33;;
78404;SDS011;67689;43.592;1.418;2023-04-03T02:54:31;7.95;;;3.42;;
78404;SDS011;67689;43.592;1.418;2023-04-03T02:56:57;11.25;;;3.38;;
78404;SDS011;67689;43.592;1.418;2023-04-03T02:59:22;9.35;;;3.40;;
78404;SDS011;67689;43.592;1.418;2023-04-03T03:01:48;8.85;;;3.10;;
78404;SDS011;67689;43.592;1.418;2023-04-03T03:04:13;7.72;;;3.15;;
78404;SDS011;67689;43.592;1.418;2023-04-03T03:06:38;8.80;;;3.55;;
78404;SDS011;67689;43.592;1.418;2023-04-03T03:09:05;9.73;;;3.25;;
78404;SDS011;67689;43.592;1.418;2023-04-03T03:11:30;7.63;;;3.00;;
78404;SDS011;67689;43.592;1.418;2023-04-03T03:13:56;11.00;;;3.15;;
78404;SDS011;67689;43.592;1.418;2023-04-03T03:16:22;8.57;;;3.50;;
78404;SDS011;67689;43.592;1.418;2023-04-03T03:18:47;8.75;;;3.58;;
78404;SDS011;67689;43.592;1.418;2023-04-03T03:21:13;6.47;;;3.00;;
78404;SDS011;67689;43.592;1.418;2023-04-03T03:23:38;8.38;;;3.42;;
78404;SDS011;67689;43.592;1.418;2023-04-03T03:26:08;7.03;;;3.15;;
78404;SDS011;67689;43.592;1.418;2023-04-03T03:28:35;8.35;;;3.70;;
78404;SDS011;67689;43.592;1.418;2023-04-03T03:31:01;8.45;;;3.60;;
78404;SDS011;67689;43.592;1.418;2023-04-03T03:33:27;9.18;;;3.63;;
78404;SDS011;67689;43.592;1.418;2023-04-03T03:35:53;8.02;;;3.50;;
78404;SDS011;67689;43.592;1.418;2023-04-03T03:38:18;8.30;;;3.83;;
78404;SDS011;67689;43.592;1.418;2023-04-03T03:40:44;10.25;;;4.20;;
78404;SDS011;67689;43.592;1.418;2023-04-03T03:43:12;9.95;;;3.83;;
78404;SDS011;67689;43.592;1.418;2023-04-03T03:45:37;8.93;;;3.88;;
78404;SDS011;67689;43.592;1.418;2023-04-03T03:48:03;13.95;;;4.38;;
78404;SDS011;67689;43.592;1.418;2023-04-03T03:50:28;7.22;;;3.33;;
78404;SDS011;67689;43.592;1.418;2023-04-03T03:52:54;10.82;;;4.13;;
78404;SDS011;67689;43.592;1.418;2023-04-03T03:55:19;10.18;;;4.25;;
78404;SDS011;67689;43.592;1.418;2023-04-03T03:57:44;11.30;;;4.00;;
78404;SDS011;67689;43.592;1.418;2023-04-03T04:00:10;10.80;;;4.50;;
78404;SDS011;67689;43.592;1.418;2023-04-03T04:02:35;7.35;;;3.65;;
78404;SDS011;67689;43.592;1.418;2023-04-03T04:05:01;9.88;;;4.45;;
78404;SDS011;67689;43.592;1.418;2023-04-03T04:07:26;10.68;;;4.05;;
78404;SDS011;67689;43.592;1.418;2023-04-03T04:09:53;9.70;;;3.67;;
78404;SDS011;67689;43.592;1.418;2023-04-03T04:12:18;9.70;;;3.55;;
78404;SDS011;67689;43.592;1.418;2023-04-03T04:14:44;9.13;;;3.88;;
78404;SDS011;67689;43.592;1.418;2023-04-03T04:17:11;8.85;;;4.10;;
78404;SDS011;67689;43.592;1.418;2023-04-03T04:19:37;10.63;;;3.80;;
78404;SDS011;67689;43.592;1.418;2023-04-03T04:22:03;7.75;;;3.63;;
78404;SDS011;67689;43.592;1.418;2023-04-03T04:24:28;7.32;;;3.78;;
78404;SDS011;67689;43.592;1.418;2023-04-03T04:26:53;8.18;;;3.45;;
78404;SDS011;67689;43.592;1.418;2023-04-03T04:29:19;8.63;;;3.90;;
78404;SDS011;67689;43.592;1.418;2023-04-03T04:31:44;8.43;;;3.65;;
78404;SDS011;67689;43.592;1.418;2023-04-03T04:34:10;8.68;;;3.78;;
78404;SDS011;67689;43.592;1.418;2023-04-03T04:36:35;8.63;;;3.67;;
78404;SDS011;67689;43.592;1.418;2023-04-03T04:39:00;10.43;;;3.63;;
78404;SDS011;67689;43.592;1.418;2023-04-03T04:41:26;8.68;;;3.78;;
78404;SDS011;67689;43.592;1.418;2023-04-03T04:43:51;9.93;;;3.60;;
78404;SDS011;67689;43.592;1.418;2023-04-03T04:46:17;10.23;;;3.83;;
78404;SDS011;67689;43.592;1.418;2023-04-03T04:48:43;7.25;;;3.50;;
78404;SDS011;67689;43.592;1.418;2023-04-03T04:51:08;7.88;;;3.90;;
78404;SDS011;67689;43.592;1.418;2023-04-03T04:53:34;8.40;;;3.85;;
78404;SDS011;67689;43.592;1.418;2023-04-03T04:55:59;10.55;;;3.80;;
78404;SDS011;67689;43.592;1.418;2023-04-03T04:58:25;8.35;;;3.67;;
78404;SDS011;67689;43.592;1.418;2023-04-03T05:00:58;8.40;;;3.78;;
78404;SDS011;67689;43.592;1.418;2023-04-03T05:03:27;12.63;;;4.47;;
78404;SDS011;67689;43.592;1.418;2023-04-03T05:05:52;8.02;;;3.80;;
78404;SDS011;67689;43.592;1.418;2023-04-03T05:08:18;9.55;;;3.75;;
78404;SDS011;67689;43.592;1.418;2023-04-03T05:10:44;9.23;;;3.70;;
78404;SDS011;67689;43.592;1.418;2023-04-03T05:13:10;9.48;;;3.97;;
78404;SDS011;67689;43.592;1.418;2023-04-03T05:15:35;9.27;;;3.80;;
78404;SDS011;67689;43.592;1.418;2023-04-03T05:18:01;11.23;;;4.50;;
78404;SDS011;67689;43.592;1.418;2023-04-03T05:20:26;9.65;;;4.20;;
78404;SDS011;67689;43.592;1.418;2023-04-03T05:22:51;11.30;;;4.22;;
78404;SDS011;67689;43.592;1.418;2023-04-03T05:25:17;7.93;;;3.72;;
78404;SDS011;67689;43.592;1.418;2023-04-03T05:27:42;11.00;;;4.35;;
78404;SDS011;67689;43.592;1.418;2023-04-03T05:30:08;8.48;;;3.80;;
78404;SDS011;67689;43.592;1.418;2023-04-03T05:32:33;8.68;;;4.25;;
78404;SDS011;67689;43.592;1.418;2023-04-03T05:34:59;9.48;;;4.22;;
78404;SDS011;67689;43.592;1.418;2023-04-03T05:37:24;8.63;;;4.55;;
78404;SDS011;67689;43.592;1.418;2023-04-03T05:39:50;7.93;;;4.20;;
78404;SDS011;67689;43.592;1.418;2023-04-03T05:42:15;11.38;;;4.10;;
78404;SDS011;67689;43.592;1.418;2023-04-03T05:44:41;11.15;;;3.97;;
78404;SDS011;67689;43.592;1.418;2023-04-03T05:47:07;8.75;;;4.22;;
78404;SDS011;67689;43.592;1.418;2023-04-03T05:49:33;9.65;;;3.85;;
78404;SDS011;67689;43.592;1.418;2023-04-03T05:51:58;8.43;;;3.63;;
78404;SDS011;67689;43.592;1.418;2023-04-03T05:54:25;7.25;;;4.03;;
78404;SDS011;67689;43.592;1.418;2023-04-03T05:56:51;8.00;;;3.67;;
78404;SDS011;67689;43.592;1.418;2023-04-03T05:59:17;7.97;;;3.90;;
78404;SDS011;67689;43.592;1.418;2023-04-03T06:01:43;11.55;;;4.00;;
78404;SDS011;67689;43.592;1.418;2023-04-03T06:04:08;8.43;;;3.83;;
78404;SDS011;67689;43.592;1.418;2023-04-03T06:06:50;9.82;;;4.00;;
78404;SDS011;67689;43.592;1.418;2023-04-03T06:09:18;8.85;;;3.30;;
78404;SDS011;67689;43.592;1.418;2023-04-03T06:11:45;9.93;;;3.50;;
78404;SDS011;67689;43.592;1.418;2023-04-03T06:14:11;8.93;;;3.78;;
78404;SDS011;67689;43.592;1.418;2023-04-03T06:16:36;8.90;;;3.72;;
78404;SDS011;67689;43.592;1.418;2023-04-03T06:19:03;9.60;;;3.55;;
78404;SDS011;67689;43.592;1.418;2023-04-03T06:21:29;9.60;;;3.47;;
78404;SDS011;67689;43.592;1.418;2023-04-03T06:23:55;8.25;;;3.67;;
78404;SDS011;67689;43.592;1.418;2023-04-03T06:26:20;8.43;;;3.70;;
78404;SDS011;67689;43.592;1.418;2023-04-03T06:28:45;16.27;;;6.03;;
78404;SDS011;67689;43.592;1.418;2023-04-03T06:31:11;8.57;;;3.88;;
78404;SDS011;67689;43.592;1.418;2023-04-03T06:33:36;8.43;;;3.58;;
78404;SDS011;67689;43.592;1.418;2023-04-03T06:36:03;8.68;;;3.67;;
78404;SDS011;67689;43.592;1.418;2023-04-03T06:38:29;10.48;;;3.97;;
78404;SDS011;67689;43.592;1.418;2023-04-03T06:40:55;8.85;;;3.60;;
78404;SDS011;67689;43.592;1.418;2023-04-03T06:43:21;9.30;;;4.13;;
78404;SDS011;67689;43.592;1.418;2023-04-03T06:45:46;9.35;;;4.05;;
78404;SDS011;67689;43.592;1.418;2023-04-03T06:48:12;10.07;;;3.90;;
78404;SDS011;67689;43.592;1.418;2023-04-03T06:50:38;9.68;;;3.55;;
78404;SDS011;67689;43.592;1.418;2023-04-03T06:53:03;8.60;;;4.10;;
78404;SDS011;67689;43.592;1.418;2023-04-03T06:55:29;12.00;;;3.90;;
78404;SDS011;67689;43.592;1.418;2023-04-03T06:57:54;10.13;;;3.80;;
78404;SDS011;67689;43.592;1.418;2023-04-03T07:00:20;11.18;;;3.55;;
78404;SDS011;67689;43.592;1.418;2023-04-03T07:02:46;7.43;;;3.85;;
78404;SDS011;67689;43.592;1.418;2023-04-03T07:05:11;7.65;;;3.90;;
78404;SDS011;67689;43.592;1.418;2023-04-03T07:07:37;8.77;;;3.65;;
78404;SDS011;67689;43.592;1.418;2023-04-03T07:10:03;8.55;;;3.95;;
78404;SDS011;67689;43.592;1.418;2023-04-03T07:12:30;8.98;;;3.85;;
78404;SDS011;67689;43.592;1.418;2023-04-03T07:14:55;9.40;;;4.57;;
78404;SDS011;67689;43.592;1.418;2023-04-03T07:17:21;13.25;;;5.60;;
78404;SDS011;67689;43.592;1.418;2023-04-03T07:19:46;8.73;;;3.80;;
78404;SDS011;67689;43.592;1.418;2023-04-03T07:22:12;8.45;;;4.00;;
78404;SDS011;67689;43.592;1.418;2023-04-03T07:24:38;9.63;;;3.97;;
78404;SDS011;67689;43.592;1.418;2023-04-03T07:27:03;10.68;;;4.25;;
78404;SDS011;67689;43.592;1.418;2023-04-03T07:29:29;8.48;;;3.80;;
78404;SDS011;67689;43.592;1.418;2023-04-03T07:31:55;9.75;;;3.67;;
78404;SDS011;67689;43.592;1.418;2023-04-03T07:34:21;8.50;;;4.25;;
78404;SDS011;67689;43.592;1.418;2023-04-03T07:36:46;18.15;;;9.48;;
78404;SDS011;67689;43.592;1.418;2023-04-03T07:39:12;11.38;;;3.70;;
78404;SDS011;67689;43.592;1.418;2023-04-03T07:41:37;7.68;;;3.72;;
78404;SDS011;67689;43.592;1.418;2023-04-03T07:44:03;10.90;;;3.55;;
78404;SDS011;67689;43.592;1.418;2023-04-03T07:46:29;8.48;;;4.10;;
78404;SDS011;67689;43.592;1.418;2023-04-03T07:48:55;8.98;;;4.03;;
78404;SDS011;67689;43.592;1.418;2023-04-03T07:51:20;9.75;;;3.85;;
78404;SDS011;67689;43.592;1.418;2023-04-03T07:53:46;9.32;;;3.53;;
78404;SDS011;67689;43.592;1.418;2023-04-03T07:56:11;8.90;;;3.30;;
78404;SDS011;67689;43.592;1.418;2023-04-03T07:58:36;8.48;;;3.60;;
78404;SDS011;67689;43.592;1.418;2023-04-03T08:01:02;8.10;;;3.15;;
78404;SDS011;67689;43.592;1.418;2023-04-03T08:03:28;9.68;;;3.50;;
78404;SDS011;67689;43.592;1.418;2023-04-03T08:05:53;9.60;;;3.38;;
78404;SDS011;67689;43.592;1.418;2023-04-03T08:08:20;6.55;;;3.15;;
78404;SDS011;67689;43.592;1.418;2023-04-03T08:10:50;7.63;;;3.10;;
78404;SDS011;67689;43.592;1.418;2023-04-03T08:13:17;8.25;;;3.50;;
78404;SDS011;67689;43.592;1.418;2023-04-03T08:15:42;7.68;;;3.60;;
78404;SDS011;67689;43.592;1.418;2023-04-03T08:18:08;9.43;;;3.60;;
78404;SDS011;67689;43.592;1.418;2023-04-03T08:20:34;8.98;;;3.40;;
78404;SDS011;67689;43.592;1.418;2023-04-03T08:22:59;9.25;;;3.40;;
78404;SDS011;67689;43.592;1.418;2023-04-03T08:25:25;9.25;;;3.05;;
78404;SDS011;67689;43.592;1.418;2023-04-03T08:27:51;6.55;;;3.00;;
78404;SDS011;67689;43.592;1.418;2023-04-03T08:30:16;10.05;;;3.67;;
78404;SDS011;67689;43.592;1.418;2023-04-03T08:32:42;10.95;;;3.53;;
78404;SDS011;67689;43.592;1.418;2023-04-03T08:35:09;8.35;;;3.15;;
78404;SDS011;67689;43.592;1.418;2023-04-03T08:37:35;8.38;;;3.10;;
78404;SDS011;67689;43.592;1.418;2023-04-03T08:40:01;9.43;;;3.20;;
78404;SDS011;67689;43.592;1.418;2023-04-03T08:50:26;8.35;;;3.22;;
78404;SDS011;67689;43.592;1.418;2023-04-03T08:52:58;11.82;;;3.60;;
78404;SDS011;67689;43.592;1.418;2023-04-03T08:55:28;7.28;;;3.03;;
78404;SDS011;67689;43.592;1.418;2023-04-03T08:58:06;8.35;;;3.53;;
78404;SDS011;67689;43.592;1.418;2023-04-03T09:00:46;9.63;;;3.50;;
78404;SDS011;67689;43.592;1.418;2023-04-03T09:03:20;10.95;;;3.40;;
78404;SDS011;67689;43.592;1.418;2023-04-03T09:10:55;12.35;;;4.55;;
78404;SDS011;67689;43.592;1.418;2023-04-03T09:13:30;7.68;;;3.25;;
78404;SDS011;67689;43.592;1.418;2023-04-03T09:16:01;9.02;;;3.05;;
78404;SDS011;67689;43.592;1.418;2023-04-03T09:18:32;8.90;;;3.28;;
78404;SDS011;67689;43.592;1.418;2023-04-03T09:21:03;8.88;;;2.80;;
78404;SDS011;67689;43.592;1.418;2023-04-03T09:23:44;11.20;;;2.97;;
78404;SDS011;67689;43.592;1.418;2023-04-03T09:26:17;7.95;;;2.70;;
78404;SDS011;67689;43.592;1.418;2023-04-03T09:28:44;6.50;;;2.60;;
78404;SDS011;67689;43.592;1.418;2023-04-03T09:33:44;8.38;;;2.80;;
78404;SDS011;67689;43.592;1.418;2023-04-03T09:36:10;6.72;;;2.60;;
78404;SDS011;67689;43.592;1.418;2023-04-03T09:38:36;7.32;;;2.53;;
78404;SDS011;67689;43.592;1.418;2023-04-03T09:43:34;6.88;;;2.50;;
78404;SDS011;67689;43.592;1.418;2023-04-03T09:48:52;7.65;;;2.53;;
78404;SDS011;67689;43.592;1.418;2023-04-03T09:51:24;7.57;;;2.75;;
78404;SDS011;67689;43.592;1.418;2023-04-03T09:53:52;9.02;;;2.53;;
78404;SDS011;67689;43.592;1.418;2023-04-03T10:06:28;7.45;;;2.75;;
78404;SDS011;67689;43.592;1.418;2023-04-03T10:09:00;8.07;;;2.38;;
78404;SDS011;67689;43.592;1.418;2023-04-03T10:11:30;8.18;;;2.00;;
78404;SDS011;67689;43.592;1.418;2023-04-03T10:14:00;8.15;;;2.35;;
78404;SDS011;67689;43.592;1.418;2023-04-03T10:16:35;6.18;;;2.28;;
78404;SDS011;67689;43.592;1.418;2023-04-03T10:21:59;5.88;;;2.17;;
78404;SDS011;67689;43.592;1.418;2023-04-03T10:24:40;8.00;;;1.95;;
78404;SDS011;67689;43.592;1.418;2023-04-03T10:27:55;8.10;;;2.40;;
78404;SDS011;67689;43.592;1.418;2023-04-03T10:33:19;6.03;;;2.13;;
78404;SDS011;67689;43.592;1.418;2023-04-03T10:41:08;6.30;;;2.20;;
78404;SDS011;67689;43.592;1.418;2023-04-03T10:44:26;5.75;;;1.90;;
78404;SDS011;67689;43.592;1.418;2023-04-03T10:46:46;6.68;;;2.10;;
78404;SDS011;67689;43.592;1.418;2023-04-03T10:49:17;5.97;;;1.65;;
78404;SDS011;67689;43.592;1.418;2023-04-03T10:52:14;6.60;;;2.00;;
78404;SDS011;67689;43.592;1.418;2023-04-03T10:54:41;8.45;;;2.03;;
78404;SDS011;67689;43.592;1.418;2023-04-03T10:57:26;8.73;;;2.35;;
78404;SDS011;67689;43.592;1.418;2023-04-03T10:59:55;6.38;;;2.00;;
78404;SDS011;67689;43.592;1.418;2023-04-03T11:02:24;5.13;;;1.88;;
78404;SDS011;67689;43.592;1.418;2023-04-03T11:04:53;6.18;;;1.90;;
78404;SDS011;67689;43.592;1.418;2023-04-03T11:07:21;4.72;;;1.42;;
78404;SDS011;67689;43.592;1.418;2023-04-03T11:09:53;6.30;;;1.55;;
78404;SDS011;67689;43.592;1.418;2023-04-03T11:15:15;5.28;;;1.67;;
78404;SDS011;67689;43.592;1.418;2023-04-03T11:17:46;5.97;;;1.90;;
78404;SDS011;67689;43.592;1.418;2023-04-03T11:22:54;5.93;;;1.83;;
78404;SDS011;67689;43.592;1.418;2023-04-03T11:25:26;9.65;;;1.98;;
78404;SDS011;67689;43.592;1.418;2023-04-03T11:28:02;7.60;;;1.95;;
78404;SDS011;67689;43.592;1.418;2023-04-03T11:30:33;5.30;;;1.77;;
78404;SDS011;67689;43.592;1.418;2023-04-03T11:33:14;6.03;;;1.90;;
78404;SDS011;67689;43.592;1.418;2023-04-03T11:35:43;5.78;;;1.80;;
78404;SDS011;67689;43.592;1.418;2023-04-03T11:38:10;5.78;;;1.98;;
78404;SDS011;67689;43.592;1.418;2023-04-03T11:40:42;6.32;;;1.90;;
78404;SDS011;67689;43.592;1.418;2023-04-03T11:45:57;8.88;;;3.63;;
78404;SDS011;67689;43.592;1.418;2023-04-03T11:53:37;6.78;;;2.10;;
78404;SDS011;67689;43.592;1.418;2023-04-03T11:59:14;5.38;;;1.90;;
78404;SDS011;67689;43.592;1.418;2023-04-03T12:01:43;6.13;;;1.73;;
78404;SDS011;67689;43.592;1.418;2023-04-03T12:04:11;5.90;;;1.80;;
78404;SDS011;67689;43.592;1.418;2023-04-03T12:09:21;5.63;;;1.58;;
78404;SDS011;67689;43.592;1.418;2023-04-03T12:21:11;7.82;;;2.15;;
78404;SDS011;67689;43.592;1.418;2023-04-03T12:23:56;8.85;;;2.08;;
78404;SDS011;67689;43.592;1.418;2023-04-03T12:26:22;6.57;;;2.08;;
78404;SDS011;67689;43.592;1.418;2023-04-03T12:28:51;6.00;;;2.17;;
78404;SDS011;67689;43.592;1.418;2023-04-03T12:31:18;5.57;;;2.10;;
78404;SDS011;67689;43.592;1.418;2023-04-03T12:33:56;7.05;;;2.10;;
78404;SDS011;67689;43.592;1.418;2023-04-03T12:36:39;8.20;;;2.53;;
78404;SDS011;67689;43.592;1.418;2023-04-03T12:39:12;7.72;;;2.10;;
78404;SDS011;67689;43.592;1.418;2023-04-03T12:46:53;5.40;;;1.90;;
78404;SDS011;67689;43.592;1.418;2023-04-03T12:52:41;6.43;;;2.20;;
78404;SDS011;67689;43.592;1.418;2023-04-03T12:55:16;7.45;;;2.30;;
78404;SDS011;67689;43.592;1.418;2023-04-03T12:57:43;7.20;;;1.67;;
78404;SDS011;67689;43.592;1.418;2023-04-03T13:02:58;4.80;;;1.75;;
78404;SDS011;67689;43.592;1.418;2023-04-03T13:05:24;6.97;;;1.88;;
78404;SDS011;67689;43.592;1.418;2023-04-03T13:08:00;4.88;;;1.60;;
78404;SDS011;67689;43.592;1.418;2023-04-03T13:10:28;5.75;;;1.77;;
78404;SDS011;67689;43.592;1.418;2023-04-03T13:12:58;7.07;;;2.00;;
78404;SDS011;67689;43.592;1.418;2023-04-03T13:15:43;7.05;;;2.10;;
78404;SDS011;67689;43.592;1.418;2023-04-03T13:21:07;6.07;;;1.70;;
78404;SDS011;67689;43.592;1.418;2023-04-03T13:23:37;5.90;;;2.03;;
78404;SDS011;67689;43.592;1.418;2023-04-03T13:26:04;7.35;;;1.88;;
78404;SDS011;67689;43.592;1.418;2023-04-03T13:28:31;5.80;;;1.98;;
78404;SDS011;67689;43.592;1.418;2023-04-03T13:33:31;9.02;;;1.90;;
78404;SDS011;67689;43.592;1.418;2023-04-03T13:36:04;7.20;;;2.17;;
78404;SDS011;67689;43.592;1.418;2023-04-03T13:39:00;8.60;;;2.60;;
78404;SDS011;67689;43.592;1.418;2023-04-03T13:41:30;8.13;;;1.80;;
78404;SDS011;67689;43.592;1.418;2023-04-03T13:46:50;8.13;;;2.08;;
78404;SDS011;67689;43.592;1.418;2023-04-03T13:49:36;5.07;;;1.67;;
78404;SDS011;67689;43.592;1.418;2023-04-03T13:52:17;4.97;;;1.60;;
78404;SDS011;67689;43.592;1.418;2023-04-03T13:54:48;6.72;;;1.63;;
78404;SDS011;67689;43.592;1.418;2023-04-03T13:57:17;6.70;;;1.83;;
78404;SDS011;67689;43.592;1.418;2023-04-03T13:59:43;6.15;;;1.70;;
78404;SDS011;67689;43.592;1.418;2023-04-03T14:07:02;7.10;;;1.90;;
78404;SDS011;67689;43.592;1.418;2023-04-03T14:09:28;6.53;;;1.67;;
78404;SDS011;67689;43.592;1.418;2023-04-03T14:11:54;6.40;;;1.70;;
78404;SDS011;67689;43.592;1.418;2023-04-03T14:14:23;7.15;;;2.00;;
78404;SDS011;67689;43.592;1.418;2023-04-03T14:16:52;8.45;;;2.17;;
78404;SDS011;67689;43.592;1.418;2023-04-03T14:19:21;7.07;;;1.90;;
78404;SDS011;67689;43.592;1.418;2023-04-03T14:21:48;9.07;;;2.05;;
78404;SDS011;67689;43.592;1.418;2023-04-03T14:24:15;6.38;;;1.95;;
78404;SDS011;67689;43.592;1.418;2023-04-03T14:26:41;5.85;;;1.92;;
78404;SDS011;67689;43.592;1.418;2023-04-03T14:29:09;8.20;;;2.08;;
78404;SDS011;67689;43.592;1.418;2023-04-03T14:31:35;6.35;;;1.85;;
78404;SDS011;67689;43.592;1.418;2023-04-03T14:34:01;6.75;;;2.03;;
78404;SDS011;67689;43.592;1.418;2023-04-03T14:36:27;6.25;;;1.92;;
78404;SDS011;67689;43.592;1.418;2023-04-03T14:38:53;7.95;;;2.03;;
78404;SDS011;67689;43.592;1.418;2023-04-03T14:41:21;6.68;;;1.70;;
78404;SDS011;67689;43.592;1.418;2023-04-03T14:43:48;8.52;;;2.22;;
78404;SDS011;67689;43.592;1.418;2023-04-03T14:46:21;6.40;;;1.98;;
78404;SDS011;67689;43.592;1.418;2023-04-03T14:48:49;7.93;;;1.90;;
78404;SDS011;67689;43.592;1.418;2023-04-03T14:51:15;6.55;;;2.00;;
78404;SDS011;67689;43.592;1.418;2023-04-03T14:53:41;7.95;;;1.90;;
78404;SDS011;67689;43.592;1.418;2023-04-03T14:56:25;7.93;;;2.30;;
78404;SDS011;67689;43.592;1.418;2023-04-03T14:58:54;7.55;;;2.10;;
78404;SDS011;67689;43.592;1.418;2023-04-03T15:01:21;7.30;;;2.13;;
78404;SDS011;67689;43.592;1.418;2023-04-03T15:03:46;7.40;;;2.00;;
78404;SDS011;67689;43.592;1.418;2023-04-03T15:06:12;6.95;;;2.20;;
78404;SDS011;67689;43.592;1.418;2023-04-03T15:08:38;4.30;;;1.65;;
78404;SDS011;67689;43.592;1.418;2023-04-03T15:11:06;8.05;;;2.10;;
78404;SDS011;67689;43.592;1.418;2023-04-03T15:13:32;8.55;;;2.40;;
78404;SDS011;67689;43.592;1.418;2023-04-03T15:15:57;6.25;;;2.05;;
78404;SDS011;67689;43.592;1.418;2023-04-03T15:18:24;9.75;;;2.08;;
78404;SDS011;67689;43.592;1.418;2023-04-03T15:20:51;7.03;;;2.13;;
78404;SDS011;67689;43.592;1.418;2023-04-03T15:23:17;6.93;;;2.05;;
78404;SDS011;67689;43.592;1.418;2023-04-03T15:25:44;7.55;;;2.30;;
78404;SDS011;67689;43.592;1.418;2023-04-03T15:31:01;7.80;;;2.33;;
78404;SDS011;67689;43.592;1.418;2023-04-03T15:33:27;6.38;;;2.03;;
78404;SDS011;67689;43.592;1.418;2023-04-03T15:35:52;7.45;;;2.15;;
78404;SDS011;67689;43.592;1.418;2023-04-03T15:38:18;6.00;;;1.80;;
78404;SDS011;67689;43.592;1.418;2023-04-03T15:40:43;7.45;;;1.92;;
78404;SDS011;67689;43.592;1.418;2023-04-03T15:43:09;8.90;;;2.08;;
78404;SDS011;67689;43.592;1.418;2023-04-03T15:45:35;6.35;;;1.90;;
78404;SDS011;67689;43.592;1.418;2023-04-03T15:48:01;5.93;;;1.80;;
78404;SDS011;67689;43.592;1.418;2023-04-03T15:50:28;6.03;;;1.90;;
78404;SDS011;67689;43.592;1.418;2023-04-03T15:52:53;6.43;;;2.42;;
78404;SDS011;67689;43.592;1.418;2023-04-03T15:55:24;9.57;;;3.00;;
78404;SDS011;67689;43.592;1.418;2023-04-03T15:57:50;7.53;;;2.30;;
78404;SDS011;67689;43.592;1.418;2023-04-03T16:00:16;6.97;;;2.05;;
78404;SDS011;67689;43.592;1.418;2023-04-03T16:02:43;8.70;;;1.90;;
78404;SDS011;67689;43.592;1.418;2023-04-03T16:05:09;6.00;;;1.80;;
78404;SDS011;67689;43.592;1.418;2023-04-03T16:07:36;5.93;;;1.88;;
78404;SDS011;67689;43.592;1.418;2023-04-03T16:10:03;8.52;;;2.00;;
78404;SDS011;67689;43.592;1.418;2023-04-03T16:12:29;6.40;;;1.85;;
78404;SDS011;67689;43.592;1.418;2023-04-03T16:14:55;7.68;;;2.00;;
78404;SDS011;67689;43.592;1.418;2023-04-03T16:17:20;5.03;;;1.65;;
78404;SDS011;67689;43.592;1.418;2023-04-03T16:19:45;4.75;;;1.60;;
78404;SDS011;67689;43.592;1.418;2023-04-03T16:22:11;4.22;;;1.58;;
78404;SDS011;67689;43.592;1.418;2023-04-03T16:24:36;6.13;;;1.90;;
78404;SDS011;67689;43.592;1.418;2023-04-03T16:27:03;6.45;;;1.73;;
78404;SDS011;67689;43.592;1.418;2023-04-03T16:29:28;7.68;;;1.73;;
78404;SDS011;67689;43.592;1.418;2023-04-03T16:31:54;8.05;;;2.25;;